createdAt,value
2022-10-11T00:04:59.196Z,3.03
2022-10-11T00:10:00.619Z,3.20
2022-10-11T00:15:02.980Z,2.67
2022-10-11T00:20:04.912Z,3.22
2022-10-11T00:25:08.404Z,3.20
2022-10-11T00:30:10.959Z,3.42
2022-10-11T00:35:12.476Z,3.50
2022-10-11T00:40:17.271Z,2.90
2022-10-11T00:45:27.568Z,3.38
2022-10-11T00:50:33.064Z,3.40
2022-10-11T00:55:40.285Z,2.47
2022-10-11T01:00:41.979Z,2.83
2022-10-11T01:05:44.256Z,3.15
2022-10-11T01:10:45.737Z,3.33
2022-10-11T01:15:56.887Z,2.88
2022-10-11T01:21:04.097Z,3.13
2022-10-11T01:27:00.427Z,2.90
2022-10-11T01:32:24.426Z,2.97
2022-10-11T01:37:31.935Z,3.03
2022-10-11T01:42:36.241Z,3.22
2022-10-11T01:47:38.999Z,3.00
2022-10-11T01:52:44.427Z,3.80
2022-10-11T01:57:45.767Z,3.53
2022-10-11T02:03:06.079Z,2.75
2022-10-11T02:08:38.666Z,2.97
2022-10-11T02:13:46.146Z,2.40
2022-10-11T02:18:51.647Z,3.00
2022-10-11T02:24:09.699Z,2.80
2022-10-11T02:29:14.897Z,2.42
2022-10-11T02:34:35.566Z,2.90
2022-10-11T02:39:42.568Z,2.60
2022-10-11T02:44:53.174Z,3.00
2022-10-11T02:49:55.243Z,2.50
2022-10-11T02:54:56.706Z,2.95
2022-10-11T02:59:58.123Z,2.42
2022-10-11T03:05:00.117Z,2.67
2022-10-11T03:10:01.951Z,2.53
2022-10-11T03:15:04.081Z,2.85
2022-10-11T03:20:06.513Z,2.72
2022-10-11T03:25:08.410Z,2.60
2022-10-11T03:30:13.296Z,2.50
2022-10-11T03:35:16.650Z,2.22
2022-10-11T03:40:18.200Z,2.90
2022-10-11T03:45:19.624Z,3.05
2022-10-11T03:50:21.076Z,2.85
2022-10-11T03:55:22.513Z,2.88
2022-10-11T04:00:24.322Z,2.75
2022-10-11T04:05:25.771Z,2.78
2022-10-11T04:10:27.236Z,2.88
2022-10-11T04:15:28.721Z,3.15
2022-10-11T04:20:30.152Z,2.45
2022-10-11T04:25:31.605Z,3.22
2022-10-11T04:30:33.025Z,2.80
2022-10-11T04:35:34.461Z,2.83
2022-10-11T04:40:35.880Z,3.10
2022-10-11T04:45:37.338Z,3.55
2022-10-11T04:50:38.732Z,2.80
2022-10-11T04:55:42.399Z,3.08
2022-10-11T05:00:43.810Z,3.03
2022-10-11T05:05:45.268Z,3.35
2022-10-11T05:11:00.497Z,2.60
2022-10-11T05:16:06.931Z,2.50
2022-10-11T05:21:22.534Z,3.38
2022-10-11T05:26:27.327Z,2.88
2022-10-11T05:31:28.908Z,3.20
2022-10-11T05:36:30.399Z,2.33
2022-10-11T05:41:31.972Z,3.08
2022-10-11T05:46:33.518Z,2.47
2022-10-11T05:51:35.075Z,2.47
2022-10-11T05:56:36.470Z,3.00
2022-10-11T06:01:37.938Z,2.95
2022-10-11T06:06:39.375Z,3.03
2022-10-11T06:11:41.307Z,2.78
2022-10-11T06:16:42.724Z,2.10
2022-10-11T06:21:45.688Z,2.75
2022-10-11T06:26:48.972Z,3.05
2022-10-11T06:31:50.451Z,3.45
2022-10-11T06:36:52.364Z,3.30
2022-10-11T06:41:53.912Z,4.10
2022-10-11T06:46:55.959Z,10.52
2022-10-11T06:51:57.440Z,5.72
2022-10-11T06:56:59.245Z,5.60
2022-10-11T07:02:00.705Z,5.13
2022-10-11T07:07:02.164Z,5.57
2022-10-11T07:12:03.737Z,5.53
2022-10-11T07:17:05.433Z,5.43
2022-10-11T07:22:06.993Z,5.13
2022-10-11T07:27:08.441Z,4.07
2022-10-11T07:32:09.987Z,4.10
2022-10-11T07:37:11.630Z,4.70
2022-10-11T07:42:13.091Z,4.32
2022-10-11T07:47:14.505Z,4.00
2022-10-11T07:52:15.964Z,4.75
2022-10-11T07:57:17.414Z,4.43
2022-10-11T08:02:18.911Z,8.98
2022-10-11T08:07:20.333Z,5.53
2022-10-11T08:12:21.876Z,4.57
2022-10-11T08:17:23.409Z,4.57
2022-10-11T08:22:24.877Z,5.10
2022-10-11T08:27:26.717Z,4.35
2022-10-11T08:32:29.782Z,3.65
2022-10-11T08:37:31.419Z,4.28
2022-10-11T08:42:43.289Z,3.92
2022-10-11T08:47:45.629Z,4.30
2022-10-11T08:52:56.060Z,3.80
2022-10-11T08:57:58.963Z,4.35
2022-10-11T09:03:21.856Z,4.40
2022-10-11T09:08:31.303Z,4.25
2022-10-11T09:14:10.650Z,4.72
2022-10-11T09:19:37.556Z,5.30
2022-10-11T09:24:47.217Z,5.10
2022-10-11T09:30:09.300Z,4.15
2022-10-11T09:35:14.456Z,5.10
2022-10-11T09:40:34.357Z,4.97
2022-10-11T09:50:39.291Z,6.47
2022-10-11T09:56:01.022Z,7.03
2022-10-11T10:01:08.925Z,6.82
2022-10-11T10:06:24.856Z,8.75
2022-10-11T10:11:36.482Z,9.02
2022-10-11T10:16:37.924Z,9.38
2022-10-11T10:21:46.655Z,8.73
2022-10-11T10:27:10.034Z,10.20
2022-10-11T10:32:23.542Z,9.20
2022-10-11T10:37:52.240Z,7.15
2022-10-11T10:42:55.072Z,6.05
2022-10-11T10:48:37.750Z,5.18
2022-10-11T10:54:19.495Z,3.97
2022-10-11T10:59:51.843Z,3.22
2022-10-11T11:05:11.624Z,2.50
2022-10-11T11:10:20.906Z,3.30
2022-10-11T11:15:38.283Z,3.45
2022-10-11T11:21:17.322Z,2.67
2022-10-11T11:26:49.944Z,2.03
2022-10-11T11:32:10.645Z,2.58
2022-10-11T11:37:19.936Z,1.60
2022-10-11T11:42:29.202Z,1.92
2022-10-11T11:47:37.738Z,2.78
2022-10-11T11:52:44.007Z,2.17
2022-10-11T11:57:51.400Z,2.80
2022-10-11T12:02:57.967Z,1.98
2022-10-11T12:08:05.984Z,2.63
2022-10-11T12:13:09.975Z,1.98
2022-10-11T12:18:15.290Z,2.15
2022-10-11T12:23:28.836Z,1.85
2022-10-11T12:28:42.895Z,2.10
2022-10-11T12:33:48.471Z,2.58
2022-10-11T12:39:21.187Z,2.30
2022-10-11T12:44:26.380Z,2.30
2022-10-11T12:49:36.286Z,2.08
2022-10-11T12:54:59.483Z,2.08
2022-10-11T13:00:30.869Z,2.10
2022-10-11T13:05:45.035Z,1.55
2022-10-11T13:10:48.395Z,2.10
2022-10-11T13:15:54.166Z,3.30
2022-10-11T13:20:55.717Z,2.50
2022-10-11T13:25:57.176Z,3.00
2022-10-11T13:30:59.119Z,3.95
2022-10-11T13:36:03.882Z,3.78
2022-10-11T13:41:08.903Z,3.03
2022-10-11T13:46:18.734Z,3.53
2022-10-11T13:51:32.338Z,3.95
2022-10-11T13:56:43.924Z,3.20
2022-10-11T14:01:46.259Z,3.30
2022-10-11T14:06:59.285Z,3.83
2022-10-11T14:12:25.714Z,3.22
2022-10-11T14:17:45.575Z,3.40
2022-10-11T14:27:48.961Z,3.55
2022-10-11T14:32:52.891Z,3.47
2022-10-11T14:37:54.537Z,3.45
2022-10-11T14:42:56.580Z,2.97
2022-10-11T14:47:58.404Z,2.80
2022-10-11T14:52:59.961Z,3.53
2022-10-11T14:58:01.476Z,4.53
2022-10-11T15:03:04.745Z,3.95
2022-10-11T15:08:07.210Z,2.92
2022-10-11T15:13:09.060Z,3.03
2022-10-11T15:18:13.421Z,3.20
2022-10-11T15:23:14.953Z,3.80
2022-10-11T15:28:28.075Z,3.55
2022-10-11T15:33:29.649Z,3.58
2022-10-11T15:38:31.628Z,3.95
2022-10-11T15:43:33.476Z,3.15
2022-10-11T15:48:35.268Z,3.65
2022-10-11T15:53:37.144Z,4.28
2022-10-11T15:58:40.767Z,4.32
2022-10-11T16:03:43.216Z,4.20
2022-10-11T16:08:45.421Z,4.00
2022-10-11T16:13:47.526Z,3.65
2022-10-11T16:18:52.088Z,3.85
2022-10-11T16:23:53.507Z,4.10
2022-10-11T16:28:56.547Z,3.88
2022-10-11T16:33:58.068Z,3.28
2022-10-11T16:39:01.888Z,4.13
2022-10-11T16:44:03.586Z,4.13
2022-10-11T16:49:05.303Z,4.05
2022-10-11T16:54:07.071Z,4.15
2022-10-11T16:59:08.960Z,4.85
2022-10-11T17:04:10.792Z,4.20
2022-10-11T17:09:12.829Z,5.15
2022-10-11T17:14:14.231Z,5.93
2022-10-11T17:19:16.351Z,5.72
2022-10-11T17:24:17.765Z,5.38
2022-10-11T17:29:20.945Z,6.13
2022-10-11T17:34:22.398Z,5.47
2022-10-11T17:39:25.625Z,5.57
2022-10-11T17:44:27.035Z,6.28
2022-10-11T17:49:28.810Z,5.55
2022-10-11T17:54:30.316Z,5.57
2022-10-11T17:59:32.404Z,5.20
2022-10-11T18:04:33.978Z,5.75
2022-10-11T18:09:36.689Z,6.53
2022-10-11T18:14:38.193Z,6.00
2022-10-11T18:19:39.613Z,5.65
2022-10-11T18:24:41.386Z,5.53
2022-10-11T18:29:43.413Z,7.28
2022-10-11T18:34:44.934Z,7.28
2022-10-11T18:39:46.411Z,6.70
2022-10-11T18:44:47.903Z,6.55
2022-10-11T18:49:49.400Z,7.40
2022-10-11T18:54:51.721Z,7.78
2022-10-11T18:59:53.212Z,8.77
2022-10-11T19:04:54.964Z,7.95
2022-10-11T19:09:56.392Z,6.85
2022-10-11T19:14:57.931Z,7.57
2022-10-11T19:19:59.435Z,7.43
2022-10-11T19:25:00.943Z,7.07
2022-10-11T19:30:02.372Z,7.00
2022-10-11T19:35:04.074Z,6.63
2022-10-11T19:40:06.165Z,6.50
2022-10-11T19:45:08.211Z,6.85
2022-10-11T19:50:09.813Z,7.28
2022-10-11T19:55:11.350Z,7.45
2022-10-11T20:00:13.265Z,8.25
2022-10-11T20:05:14.764Z,7.80
2022-10-11T20:10:16.233Z,6.85
2022-10-11T20:15:17.672Z,7.93
2022-10-11T20:20:19.435Z,7.35
2022-10-11T20:25:21.034Z,6.32
2022-10-11T20:30:22.529Z,7.50
2022-10-11T20:35:23.995Z,6.75
2022-10-11T20:40:25.658Z,7.32
2022-10-11T20:45:27.168Z,7.15
2022-10-11T20:50:28.575Z,8.38
2022-10-11T20:55:29.994Z,7.00
2022-10-11T21:00:31.393Z,5.82
2022-10-11T21:05:33.213Z,6.78
2022-10-11T21:10:34.678Z,7.30
2022-10-11T21:15:36.082Z,6.95
2022-10-11T21:20:38.788Z,6.57
2022-10-11T21:25:40.647Z,6.72
2022-10-11T21:30:42.053Z,7.32
2022-10-11T21:35:43.548Z,7.30
2022-10-11T21:40:45.020Z,7.03
2022-10-11T21:45:46.520Z,7.80
2022-10-11T21:50:54.893Z,8.23
2022-10-11T21:55:57.807Z,9.63
2022-10-11T22:00:59.504Z,9.02
2022-10-11T22:06:03.069Z,10.57
2022-10-11T22:11:05.300Z,9.02
2022-10-11T22:16:09.147Z,10.27
2022-10-11T22:21:16.784Z,11.25
2022-10-11T22:26:21.656Z,9.80
2022-10-11T22:31:23.711Z,9.95
2022-10-11T22:36:25.832Z,9.10
2022-10-11T22:41:27.315Z,9.60
2022-10-11T22:46:28.742Z,12.48
2022-10-11T22:51:30.173Z,11.82
2022-10-11T22:56:31.626Z,12.45
2022-10-11T23:01:33.087Z,12.13
2022-10-11T23:06:34.472Z,9.93
2022-10-11T23:11:35.937Z,10.50
2022-10-11T23:16:37.368Z,11.30
2022-10-11T23:21:38.764Z,10.70
2022-10-11T23:26:40.224Z,10.45
2022-10-11T23:31:41.608Z,8.98
2022-10-11T23:36:43.071Z,8.27
2022-10-11T23:41:44.546Z,8.10
2022-10-11T23:46:46.344Z,8.07
2022-10-11T23:51:47.751Z,8.30
2022-10-11T23:56:49.424Z,8.05
